PWSweather.com
Personal Weather Stations
Station Observations
PALIDDU
BagheriaIT 90011

BagheriaIT 90011

Lat: 38.0771377, Lon: 13.5044022

Elevation: 289

Station Type: WS-1080

http://meteo40.altervista.org

Latest ConditionsUpdated 5:00:32 AM GMT+01:01 Saturday, Feb 24, 2018
Currently Today's Max Today's Min Today's Average
Temperature 49.1°F9.5°C 49.6°F9.8°C 47.8°F8.8°C 48.7°F9.3°C
Dew Point 39.4°F4.1°C 40.1°F4.5°C 36.7°F2.6°C 38.8°F3.8°C
Winds 5.2 mph SW8.4 kmh SW 8.1 mph SW13.0 kmh SW - 5.0 mph 8.0 kmh
Wind Gusts 6.9 mph11.1 kmh 10.7 mph17.2 kmh - -
Humidity 69% 72% 62% 68%
Pressure 29.68 in1005.1 mb 29.68 in1005.1 mb 29.59 in1002.0 mb -
Precipitation - 0.02 in0.5 mm - -
Hour Temp Dew Point Humidity Winds Wind Gusts Pressure Precip Precip Rate Daily Precip Total
05:00 AM 49.1°F9.5°C 39.4°F4.1°C 69% 5.2 mph SW8.4 kmh SW 6.9 mph11.1 kmh 29.68 in1005.1 mb 0.00 in0.0 mm 0.00 in0.0 mm 0.02 in0.5 mm
04:45 AM 49.5°F9.7°C 38.6°F3.7°C 66% 5.8 mph SW9.3 kmh SW 10.7 mph17.2 kmh 29.68 in1005.1 mb 0.00 in0.0 mm 0.00 in0.0 mm 0.02 in0.5 mm
04:30 AM 49.6°F9.8°C 38.8°F3.8°C 66% 5.4 mph SW8.7 kmh SW 9.2 mph14.8 kmh 29.67 in1004.7 mb 0.00 in0.0 mm 0.00 in0.0 mm 0.02 in0.5 mm
04:15 AM 49.5°F9.7°C 39.3°F4.1°C 68% 4.8 mph SW7.7 kmh SW 7.6 mph12.2 kmh 29.66 in1004.4 mb 0.00 in0.0 mm 0.00 in0.0 mm 0.02 in0.5 mm
04:00 AM 49.1°F9.5°C 40.1°F4.5°C 71% 4.1 mph SW6.6 kmh SW 6.0 mph9.7 kmh 29.65 in1004.1 mb 0.00 in0.0 mm 0.00 in0.0 mm 0.02 in0.5 mm
03:45 AM 48.9°F9.4°C 39.9°F4.4°C 71% 1.6 mph SW2.6 kmh SW 2.2 mph3.5 kmh 29.65 in1004.1 mb 0.00 in0.0 mm 0.00 in0.0 mm 0.02 in0.5 mm
03:30 AM 48.9°F9.4°C 39.6°F4.2°C 70% 1.5 mph SW2.4 kmh SW 3.1 mph5.0 kmh 29.64 in1003.7 mb 0.00 in0.0 mm 0.00 in0.0 mm 0.02 in0.5 mm
03:15 AM 48.4°F9.1°C 39.4°F4.1°C 71% 3.1 mph SW5.0 kmh SW 5.4 mph8.7 kmh 29.64 in1003.7 mb 0.01 in0.3 mm 0.00 in0.0 mm 0.02 in0.5 mm
03:00 AM 48.2°F9.0°C 39.6°F4.2°C 72% 3.0 mph SW4.8 kmh SW 5.4 mph8.7 kmh 29.64 in1003.7 mb 0.02 in0.5 mm 0.00 in0.0 mm 0.02 in0.5 mm
02:45 AM 48.2°F9.0°C 39.6°F4.2°C 72% 4.2 mph SW6.8 kmh SW 5.4 mph8.7 kmh 29.63 in1003.4 mb 0.02 in0.5 mm 0.00 in0.0 mm 0.02 in0.5 mm
02:30 AM 48.4°F9.1°C 39.8°F4.3°C 72% 6.4 mph SW10.3 kmh SW 8.3 mph13.4 kmh 29.63 in1003.4 mb 0.02 in0.5 mm 0.08 in2.0 mm 0.02 in0.5 mm
02:15 AM 48.9°F9.4°C 39.6°F4.2°C 70% 6.8 mph SW10.9 kmh SW 9.8 mph15.8 kmh 29.64 in1003.7 mb 0.00 in0.0 mm 0.00 in0.0 mm 0.00 in0.0 mm
02:00 AM 49.1°F9.5°C 38.6°F3.7°C 67% 6.2 mph SW10.0 kmh SW 8.3 mph13.4 kmh 29.62 in1003.0 mb 0.00 in0.0 mm 0.00 in0.0 mm 0.00 in0.0 mm
01:45 AM 48.7°F9.3°C 38.3°F3.5°C 67% 4.9 mph SSW7.9 kmh SSW 7.6 mph12.2 kmh 29.63 in1003.4 mb 0.00 in0.0 mm 0.00 in0.0 mm 0.00 in0.0 mm
01:30 AM 48.6°F9.2°C 38.1°F3.4°C 67% 5.4 mph SW8.7 kmh SW 7.6 mph12.2 kmh 29.62 in1003.0 mb 0.00 in0.0 mm 0.00 in0.0 mm 0.00 in0.0 mm
01:15 AM 48.6°F9.2°C 38.1°F3.4°C 67% 6.7 mph SW10.8 kmh SW 9.2 mph14.8 kmh 29.62 in1003.0 mb 0.00 in0.0 mm 0.00 in0.0 mm 0.00 in0.0 mm
01:00 AM 48.2°F9.0°C 38.1°F3.4°C 68% 8.1 mph SW13.0 kmh SW 9.8 mph15.8 kmh 29.62 in1003.0 mb 0.00 in0.0 mm 0.00 in0.0 mm 0.00 in0.0 mm
12:45 AM 47.8°F8.8°C 37.8°F3.2°C 68% 6.9 mph SW11.1 kmh SW 8.3 mph13.4 kmh 29.61 in1002.7 mb 0.00 in0.0 mm 0.00 in0.0 mm 0.00 in0.0 mm
12:30 AM 48.0°F8.9°C 37.2°F2.9°C 66% 6.4 mph SW10.3 kmh SW 8.3 mph13.4 kmh 29.60 in1002.4 mb 0.00 in0.0 mm 0.00 in0.0 mm 0.00 in0.0 mm
12:15 AM 48.4°F9.1°C 37.2°F2.9°C 65% 5.8 mph SW9.3 kmh SW 8.3 mph13.4 kmh 29.59 in1002.0 mb 0.00 in0.0 mm 0.00 in0.0 mm 0.00 in0.0 mm
12:00 AM 49.1°F9.5°C 36.7°F2.6°C 62% 2.9 mph SW4.7 kmh SW 6.0 mph9.7 kmh 29.60 in1002.4 mb 0.00 in0.0 mm 0.00 in0.0 mm 0.00 in0.0 mm